Air Park, Nebraska
Current Conditions -  °F | °C
As of 1:54 PM on Monday 24 Nov 2014 (Local Time) from KLNK Reporting Station
Clear Clear  
Wind Chill: 26°   Ceiling: Unl
Heat Index: 38°   Visibility: 10mi
Dew Point: 17°   Wind: 26mph
Humidity: 43%   Direction: 330°NNW
Pressure: 29.82"   Gusts: 32mph
Location:  40.8731°N, 96.8015°W
Report Text: KLNK 241954Z 33023G28KT 10SM CLR 03/M08 A2982 RMK AO2 PK WND 31029/1934 SLP108 T00331083
Loading
Personal Weather Stations






























Interactive Weather Map New forecast layout! Learn more

10-Day Weather Forecast

Advertisements
Track Severe Weather on mobile